createdAt,value
2017-09-23T00:00:21.722Z,1009.66
2017-09-23T00:01:02.279Z,1009.64
2017-09-23T00:01:42.859Z,1009.65
2017-09-23T00:02:23.422Z,1009.62
2017-09-23T00:03:04.009Z,1009.64
2017-09-23T00:03:44.558Z,1009.64
2017-09-23T00:04:25.099Z,1009.63
2017-09-23T00:05:05.696Z,1009.61
2017-09-23T00:05:46.233Z,1009.61
2017-09-23T00:06:26.793Z,1009.6
2017-09-23T00:07:07.329Z,1009.63
2017-09-23T00:07:47.892Z,1009.62
2017-09-23T00:08:28.451Z,1009.58
2017-09-23T00:09:09.014Z,1009.63
2017-09-23T00:09:49.649Z,1009.54
2017-09-23T00:10:30.147Z,1009.61
2017-09-23T00:11:10.721Z,1009.62
2017-09-23T00:11:51.339Z,1009.57
2017-09-23T00:12:31.901Z,1009.58
2017-09-23T00:13:12.496Z,1009.62
2017-09-23T00:13:53.055Z,1009.54
2017-09-23T00:14:33.657Z,1009.56
2017-09-23T00:15:14.202Z,1009.58
2017-09-23T00:15:54.779Z,1009.62
2017-09-23T00:16:35.365Z,1009.57
2017-09-23T00:17:15.931Z,1009.54
2017-09-23T00:17:56.504Z,1009.58
2017-09-23T00:18:37.038Z,1009.6
2017-09-23T00:19:17.603Z,1009.57
2017-09-23T00:19:58.166Z,1009.58
2017-09-23T00:20:38.751Z,1009.58
2017-09-23T00:21:19.310Z,1009.59
2017-09-23T00:21:59.876Z,1009.6
2017-09-23T00:22:40.440Z,1009.59
2017-09-23T00:23:21.009Z,1009.56
2017-09-23T00:24:01.587Z,1009.61
2017-09-23T00:24:42.123Z,1009.61
2017-09-23T00:25:22.715Z,1009.62
2017-09-23T00:26:03.290Z,1009.61
2017-09-23T00:26:43.848Z,1009.61
2017-09-23T00:27:24.402Z,1009.61
2017-09-23T00:28:04.976Z,1009.62
2017-09-23T00:28:45.554Z,1009.66
2017-09-23T00:29:26.116Z,1009.63
2017-09-23T00:30:06.704Z,1009.67
2017-09-23T00:30:47.260Z,1009.66
2017-09-23T00:31:27.859Z,1009.68
2017-09-23T00:32:08.379Z,1009.65
2017-09-23T00:32:48.982Z,1009.66
2017-09-23T00:33:29.556Z,1009.66
2017-09-23T00:34:10.142Z,1009.67
2017-09-23T00:34:50.698Z,1009.65
2017-09-23T00:35:31.285Z,1009.7
2017-09-23T00:36:11.861Z,1009.65
2017-09-23T00:36:52.419Z,1009.73
2017-09-23T00:37:32.972Z,1009.69
2017-09-23T00:38:13.522Z,1009.68
2017-09-23T00:38:54.090Z,1009.69
2017-09-23T00:39:34.673Z,1009.72
2017-09-23T00:40:15.237Z,1009.7
2017-09-23T00:40:55.774Z,1009.65
2017-09-23T00:41:36.349Z,1009.69
2017-09-23T00:42:16.936Z,1009.65
2017-09-23T00:42:57.511Z,1009.66
2017-09-23T00:43:38.098Z,1009.67
2017-09-23T00:44:18.716Z,1009.65
2017-09-23T00:44:59.231Z,1009.66
2017-09-23T00:45:39.804Z,1009.69
2017-09-23T00:46:20.375Z,1009.64
2017-09-23T00:47:00.955Z,1009.66
2017-09-23T00:47:41.550Z,1009.66
2017-09-23T00:48:22.105Z,1009.67
2017-09-23T00:49:02.683Z,1009.68
2017-09-23T00:49:43.196Z,1009.63
2017-09-23T00:50:23.769Z,1009.65
2017-09-23T00:51:04.329Z,1009.65
2017-09-23T00:51:44.929Z,1009.63
2017-09-23T00:52:25.532Z,1009.6
2017-09-23T00:53:06.087Z,1009.66
2017-09-23T00:53:46.643Z,1009.69
2017-09-23T00:54:27.199Z,1009.6
2017-09-23T00:55:07.770Z,1009.69
2017-09-23T00:55:48.360Z,1009.67
2017-09-23T00:56:28.936Z,1009.71
2017-09-23T00:57:09.508Z,1009.67
2017-09-23T00:57:50.087Z,1009.7
2017-09-23T00:58:30.696Z,1009.68
2017-09-23T00:59:11.298Z,1009.71
2017-09-23T00:59:51.874Z,1009.72
2017-09-23T01:00:32.466Z,1009.71
2017-09-23T01:01:13.080Z,1009.72
2017-09-23T01:01:53.647Z,1009.67
2017-09-23T01:02:34.216Z,1009.72
2017-09-23T01:03:14.776Z,1009.69
2017-09-23T01:03:55.364Z,1009.69
2017-09-23T01:04:35.917Z,1009.66
2017-09-23T01:05:16.478Z,1009.67
2017-09-23T01:05:57.027Z,1009.65
2017-09-23T01:06:37.575Z,1009.67
2017-09-23T01:07:18.154Z,1009.72
2017-09-23T01:07:58.706Z,1009.66
2017-09-23T01:08:39.261Z,1009.69
2017-09-23T01:09:19.832Z,1009.66
2017-09-23T01:10:00.428Z,1009.67
2017-09-23T01:10:40.957Z,1009.7
2017-09-23T01:11:21.520Z,1009.69
2017-09-23T01:12:02.095Z,1009.69
2017-09-23T01:12:42.633Z,1009.73
2017-09-23T01:13:23.214Z,1009.74
2017-09-23T01:14:03.755Z,1009.73
2017-09-23T01:14:44.347Z,1009.76
2017-09-23T01:15:24.957Z,1009.78
2017-09-23T01:16:05.539Z,1009.71
2017-09-23T01:16:46.101Z,1009.77
2017-09-23T01:17:26.660Z,1009.75
2017-09-23T01:18:07.230Z,1009.73
2017-09-23T01:18:47.782Z,1009.73
2017-09-23T01:19:28.376Z,1009.77
2017-09-23T01:20:08.935Z,1009.78
2017-09-23T01:20:49.504Z,1009.77
2017-09-23T01:21:30.072Z,1009.77
2017-09-23T01:22:10.645Z,1009.72
2017-09-23T01:22:51.208Z,1009.72
2017-09-23T01:23:31.815Z,1009.73
2017-09-23T01:24:12.405Z,1009.74
2017-09-23T01:24:52.965Z,1009.72
2017-09-23T01:25:33.532Z,1009.71
2017-09-23T01:26:14.102Z,1009.75
2017-09-23T01:26:54.663Z,1009.74
2017-09-23T01:27:35.265Z,1009.71
2017-09-23T01:28:15.810Z,1009.7
2017-09-23T01:28:56.365Z,1009.69
2017-09-23T01:29:36.947Z,1009.71
2017-09-23T01:30:17.504Z,1009.69
2017-09-23T01:30:58.059Z,1009.68
2017-09-23T01:31:38.625Z,1009.67
2017-09-23T01:32:19.207Z,1009.65
2017-09-23T01:32:59.736Z,1009.7
2017-09-23T01:33:40.331Z,1009.72
2017-09-23T01:34:20.889Z,1009.72
2017-09-23T01:35:01.497Z,1009.71
2017-09-23T01:35:42.081Z,1009.71
2017-09-23T01:36:22.643Z,1009.73
2017-09-23T01:37:03.215Z,1009.75
2017-09-23T01:37:43.781Z,1009.76
2017-09-23T01:38:24.406Z,1009.74
2017-09-23T01:39:04.957Z,1009.72
2017-09-23T01:39:45.503Z,1009.76
2017-09-23T01:40:26.056Z,1009.75
2017-09-23T01:41:06.621Z,1009.74
2017-09-23T01:41:47.195Z,1009.72
2017-09-23T01:42:27.786Z,1009.78
2017-09-23T01:43:08.339Z,1009.77
2017-09-23T01:43:48.917Z,1009.79
2017-09-23T01:44:29.492Z,1009.77
2017-09-23T01:45:10.075Z,1009.79
2017-09-23T01:45:50.659Z,1009.76
2017-09-23T01:46:31.205Z,1009.77
2017-09-23T01:47:11.771Z,1009.74
2017-09-23T01:47:52.395Z,1009.74
2017-09-23T01:48:32.943Z,1009.71
2017-09-23T01:49:13.500Z,1009.72
2017-09-23T01:49:54.058Z,1009.67
2017-09-23T01:50:34.620Z,1009.7
2017-09-23T01:51:15.215Z,1009.65
2017-09-23T01:51:55.765Z,1009.69
2017-09-23T01:52:36.316Z,1009.63
2017-09-23T01:53:16.921Z,1009.66
2017-09-23T01:53:57.473Z,1009.65
2017-09-23T01:54:38.051Z,1009.63
2017-09-23T01:55:18.594Z,1009.59
2017-09-23T01:55:59.155Z,1009.62
2017-09-23T01:56:39.704Z,1009.64
2017-09-23T01:57:20.269Z,1009.61
2017-09-23T01:58:00.825Z,1009.55
2017-09-23T01:58:41.402Z,1009.6
2017-09-23T01:59:21.965Z,1009.57
2017-09-23T02:00:02.528Z,1009.58
2017-09-23T02:00:43.087Z,1009.54
2017-09-23T02:01:23.644Z,1009.59
2017-09-23T02:02:04.239Z,1009.59
2017-09-23T02:02:44.830Z,1009.55
2017-09-23T02:03:25.483Z,1009.55
2017-09-23T02:04:06.006Z,1009.57
2017-09-23T02:04:46.530Z,1009.57
2017-09-23T02:05:27.064Z,1009.58
2017-09-23T02:06:07.670Z,1009.55
2017-09-23T02:06:48.235Z,1009.54
2017-09-23T02:07:28.827Z,1009.61
2017-09-23T02:08:09.368Z,1009.62
2017-09-23T02:08:49.932Z,1009.62
2017-09-23T02:09:30.502Z,1009.57
2017-09-23T02:10:11.070Z,1009.57
2017-09-23T02:10:51.662Z,1009.57
2017-09-23T02:11:32.196Z,1009.6
2017-09-23T02:12:12.757Z,1009.52
2017-09-23T02:12:53.369Z,1009.53
2017-09-23T02:13:33.947Z,1009.53
2017-09-23T02:14:14.500Z,1009.53
2017-09-23T02:14:55.062Z,1009.55
2017-09-23T02:15:35.632Z,1009.54
2017-09-23T02:16:16.190Z,1009.53
2017-09-23T02:16:56.739Z,1009.53
2017-09-23T02:17:37.315Z,1009.48
2017-09-23T02:18:17.895Z,1009.52
2017-09-23T02:18:58.459Z,1009.55
2017-09-23T02:19:39.020Z,1009.48
2017-09-23T02:20:19.581Z,1009.52
2017-09-23T02:21:00.158Z,1009.52
2017-09-23T02:21:40.713Z,1009.48
2017-09-23T02:22:21.318Z,1009.46
2017-09-23T02:23:01.867Z,1009.46
2017-09-23T02:23:42.447Z,1009.46
2017-09-23T02:24:23.031Z,1009.41
2017-09-23T02:25:03.605Z,1009.41
2017-09-23T02:25:44.172Z,1009.41
2017-09-23T02:26:24.748Z,1009.39
2017-09-23T02:27:05.333Z,1009.38
2017-09-23T02:27:45.870Z,1009.38
2017-09-23T02:28:26.427Z,1009.35
2017-09-23T02:29:07.030Z,1009.35
2017-09-23T02:29:47.568Z,1009.34
2017-09-23T02:30:28.127Z,1009.36
2017-09-23T02:31:08.755Z,1009.33
2017-09-23T02:31:49.337Z,1009.33
2017-09-23T02:32:29.890Z,1009.36
2017-09-23T02:33:10.469Z,1009.4
2017-09-23T02:33:51.056Z,1009.35
2017-09-23T02:34:31.645Z,1009.39
2017-09-23T02:35:12.197Z,1009.39
2017-09-23T02:35:52.768Z,1009.36
2017-09-23T02:36:33.334Z,1009.41
2017-09-23T02:37:13.945Z,1009.41
2017-09-23T02:37:54.492Z,1009.45
2017-09-23T02:38:35.082Z,1009.41
2017-09-23T02:39:15.702Z,1009.4
2017-09-23T02:39:56.252Z,1009.42
2017-09-23T02:40:36.804Z,1009.45
2017-09-23T02:41:17.399Z,1009.42
2017-09-23T02:41:57.964Z,1009.45
2017-09-23T02:42:38.535Z,1009.44
2017-09-23T02:43:19.108Z,1009.39
2017-09-23T02:43:59.698Z,1009.41
2017-09-23T02:44:40.245Z,1009.44
2017-09-23T02:45:20.808Z,1009.48
2017-09-23T02:46:01.375Z,1009.45
2017-09-23T02:46:41.942Z,1009.44
2017-09-23T02:47:22.497Z,1009.48
2017-09-23T02:48:03.074Z,1009.48
2017-09-23T02:48:43.644Z,1009.5
2017-09-23T02:49:24.224Z,1009.53
2017-09-23T02:50:04.784Z,1009.52
2017-09-23T02:50:45.354Z,1009.48
2017-09-23T02:51:25.906Z,1009.53
2017-09-23T02:52:06.471Z,1009.54
2017-09-23T02:52:47.022Z,1009.54
2017-09-23T02:53:27.607Z,1009.54
2017-09-23T02:54:08.185Z,1009.52
2017-09-23T02:54:48.748Z,1009.54
2017-09-23T02:55:29.327Z,1009.51
2017-09-23T02:56:10.062Z,1009.5
2017-09-23T02:56:50.625Z,1009.44
2017-09-23T02:57:31.211Z,1009.46
2017-09-23T02:58:11.754Z,1009.46
2017-09-23T02:58:52.326Z,1009.46
2017-09-23T02:59:32.901Z,1009.45
2017-09-23T03:00:13.485Z,1009.43
2017-09-23T03:00:53.995Z,1009.46
2017-09-23T03:01:34.585Z,1009.45
2017-09-23T03:02:15.148Z,1009.46
2017-09-23T03:02:55.732Z,1009.49
2017-09-23T03:03:36.307Z,1009.49
2017-09-23T03:04:16.878Z,1009.47
2017-09-23T03:04:57.449Z,1009.46
2017-09-23T03:05:38.003Z,1009.48
2017-09-23T03:06:18.567Z,1009.47
2017-09-23T03:06:59.140Z,1009.42
2017-09-23T03:07:39.733Z,1009.49
2017-09-23T03:08:20.304Z,1009.46
2017-09-23T03:09:00.881Z,1009.49
2017-09-23T03:09:41.464Z,1009.5
2017-09-23T03:10:22.049Z,1009.49
2017-09-23T03:11:02.595Z,1009.49
2017-09-23T03:11:43.156Z,1009.48
2017-09-23T03:12:23.735Z,1009.45
2017-09-23T03:13:04.288Z,1009.45
2017-09-23T03:13:44.848Z,1009.5
2017-09-23T03:14:25.445Z,1009.45
2017-09-23T03:15:06.008Z,1009.48
2017-09-23T03:15:46.586Z,1009.48
2017-09-23T03:16:27.144Z,1009.51
2017-09-23T03:17:07.761Z,1009.49
2017-09-23T03:17:48.286Z,1009.49
2017-09-23T03:18:28.867Z,1009.49
2017-09-23T03:19:09.420Z,1009.52
2017-09-23T03:19:49.960Z,1009.47
2017-09-23T03:20:30.515Z,1009.53
2017-09-23T03:21:11.082Z,1009.48
2017-09-23T03:21:51.657Z,1009.46
2017-09-23T03:22:32.239Z,1009.48
2017-09-23T03:23:12.818Z,1009.48
2017-09-23T03:23:53.375Z,1009.45
2017-09-23T03:24:33.949Z,1009.49
2017-09-23T03:25:14.510Z,1009.47
2017-09-23T03:25:55.094Z,1009.48
2017-09-23T03:26:35.638Z,1009.49
2017-09-23T03:27:16.188Z,1009.47
2017-09-23T03:27:56.747Z,1009.47
2017-09-23T03:28:37.367Z,1009.47
2017-09-23T03:29:17.889Z,1009.47
2017-09-23T03:29:58.483Z,1009.44
2017-09-23T03:30:39.016Z,1009.51
2017-09-23T03:31:19.594Z,1009.49
2017-09-23T03:32:00.185Z,1009.49
2017-09-23T03:32:40.742Z,1009.49
2017-09-23T03:33:21.276Z,1009.48
2017-09-23T03:34:01.843Z,1009.48
2017-09-23T03:34:42.410Z,1009.53
2017-09-23T03:35:23.051Z,1009.51
2017-09-23T03:36:03.656Z,1009.48
2017-09-23T03:36:44.209Z,1009.53
2017-09-23T03:37:24.760Z,1009.49
2017-09-23T03:38:05.332Z,1009.5
2017-09-23T03:38:45.891Z,1009.54
2017-09-23T03:39:26.454Z,1009.53
2017-09-23T03:40:07.021Z,1009.57
2017-09-23T03:40:47.609Z,1009.6
2017-09-23T03:41:28.185Z,1009.6
2017-09-23T03:42:08.748Z,1009.59
2017-09-23T03:42:49.310Z,1009.63
2017-09-23T03:43:29.887Z,1009.6
2017-09-23T03:44:10.457Z,1009.57
2017-09-23T03:44:51.049Z,1009.59
2017-09-23T03:45:31.730Z,1009.57
2017-09-23T03:46:12.160Z,1009.56
2017-09-23T03:46:52.725Z,1009.55
2017-09-23T03:47:33.293Z,1009.59
2017-09-23T03:48:13.842Z,1009.58
2017-09-23T03:48:54.416Z,1009.53
2017-09-23T03:49:35.009Z,1009.58
2017-09-23T03:50:15.553Z,1009.6
2017-09-23T03:50:56.133Z,1009.59
2017-09-23T03:51:36.678Z,1009.64
2017-09-23T03:52:17.230Z,1009.61
2017-09-23T03:52:57.867Z,1009.61
2017-09-23T03:53:38.414Z,1009.6
2017-09-23T03:54:19.005Z,1009.61
2017-09-23T03:54:59.548Z,1009.65
2017-09-23T03:55:40.131Z,1009.64
2017-09-23T03:56:20.734Z,1009.63
2017-09-23T03:57:01.269Z,1009.64
2017-09-23T03:57:41.835Z,1009.64
2017-09-23T03:58:22.393Z,1009.59
2017-09-23T03:59:02.985Z,1009.65
2017-09-23T03:59:43.540Z,1009.63
2017-09-23T04:00:24.128Z,1009.59
2017-09-23T04:01:04.707Z,1009.64
2017-09-23T04:01:45.278Z,1009.64
2017-09-23T04:02:25.833Z,1009.66
2017-09-23T04:03:06.394Z,1009.67
2017-09-23T04:03:46.976Z,1009.62
2017-09-23T04:04:27.511Z,1009.63
2017-09-23T04:05:08.089Z,1009.62
2017-09-23T04:05:48.675Z,1009.62
2017-09-23T04:06:29.232Z,1009.65
2017-09-23T04:07:09.788Z,1009.65
2017-09-23T04:07:50.339Z,1009.59
2017-09-23T04:08:30.892Z,1009.63
2017-09-23T04:09:11.507Z,1009.62
2017-09-23T04:09:52.087Z,1009.62
2017-09-23T04:10:32.663Z,1009.6
2017-09-23T04:11:13.205Z,1009.58
2017-09-23T04:11:53.768Z,1009.55
2017-09-23T04:12:34.345Z,1009.57
2017-09-23T04:13:14.923Z,1009.64
2017-09-23T04:13:55.542Z,1009.61
2017-09-23T04:14:36.080Z,1009.64
2017-09-23T04:15:16.655Z,1009.61
2017-09-23T04:15:57.242Z,1009.6
2017-09-23T04:16:37.795Z,1009.58
2017-09-23T04:17:18.380Z,1009.62
2017-09-23T04:17:58.951Z,1009.62
2017-09-23T04:18:39.497Z,1009.59
2017-09-23T04:19:20.038Z,1009.64
2017-09-23T04:20:00.600Z,1009.65
2017-09-23T04:20:41.189Z,1009.63
2017-09-23T04:21:21.756Z,1009.62
2017-09-23T04:22:02.327Z,1009.63
2017-09-23T04:22:42.901Z,1009.6
2017-09-23T04:23:23.475Z,1009.58
2017-09-23T04:24:04.048Z,1009.59
2017-09-23T04:24:44.620Z,1009.57
2017-09-23T04:25:25.201Z,1009.61
2017-09-23T04:26:05.746Z,1009.61
2017-09-23T04:26:46.322Z,1009.59
2017-09-23T04:27:26.874Z,1009.59
2017-09-23T04:28:07.440Z,1009.62
2017-09-23T04:28:47.998Z,1009.64
2017-09-23T04:29:28.583Z,1009.64
2017-09-23T04:30:09.158Z,1009.61
2017-09-23T04:30:49.675Z,1009.65
2017-09-23T04:31:30.181Z,1009.65
2017-09-23T04:32:10.729Z,1009.62
2017-09-23T04:32:51.274Z,1009.63
2017-09-23T04:33:31.824Z,1009.59
2017-09-23T04:34:12.322Z,1009.61
2017-09-23T04:34:52.882Z,1009.6
2017-09-23T04:35:33.438Z,1009.6
2017-09-23T04:36:13.953Z,1009.62
2017-09-23T04:36:54.499Z,1009.6
2017-09-23T04:37:35.078Z,1009.61
2017-09-23T04:38:15.587Z,1009.61
2017-09-23T04:38:56.140Z,1009.64
2017-09-23T04:39:36.704Z,1009.63
2017-09-23T04:40:17.252Z,1009.64
2017-09-23T04:40:57.764Z,1009.64
2017-09-23T04:41:38.332Z,1009.62
2017-09-23T04:42:18.832Z,1009.61
2017-09-23T04:42:59.390Z,1009.64
2017-09-23T04:43:39.968Z,1009.68
2017-09-23T04:44:20.481Z,1009.58
2017-09-23T04:45:00.975Z,1009.63
2017-09-23T04:45:41.514Z,1009.6
2017-09-23T04:46:22.045Z,1009.62
2017-09-23T04:47:02.602Z,1009.64
2017-09-23T04:47:43.148Z,1009.6
2017-09-23T04:48:23.729Z,1009.6
2017-09-23T04:49:04.299Z,1009.62
2017-09-23T04:49:44.803Z,1009.61
2017-09-23T04:50:25.359Z,1009.7
2017-09-23T04:51:05.888Z,1009.67
2017-09-23T04:51:46.403Z,1009.62
2017-09-23T04:52:26.925Z,1009.68
2017-09-23T04:53:07.418Z,1009.65
2017-09-23T04:53:48.011Z,1009.68
2017-09-23T04:54:28.530Z,1009.69
2017-09-23T04:55:09.063Z,1009.68
2017-09-23T04:55:49.612Z,1009.69
2017-09-23T04:56:30.182Z,1009.75
2017-09-23T04:57:10.723Z,1009.71
2017-09-23T04:57:51.276Z,1009.69
2017-09-23T04:58:31.784Z,1009.71
2017-09-23T04:59:12.313Z,1009.76
2017-09-23T04:59:52.839Z,1009.79
2017-09-23T05:00:33.411Z,1009.77
2017-09-23T05:01:13.942Z,1009.79
2017-09-23T05:01:54.446Z,1009.84
2017-09-23T05:02:34.996Z,1009.78
2017-09-23T05:03:15.509Z,1009.83
2017-09-23T05:03:56.055Z,1009.8
2017-09-23T05:04:36.564Z,1009.81
2017-09-23T05:05:17.110Z,1009.83
2017-09-23T05:05:57.701Z,1009.79
2017-09-23T05:06:38.224Z,1009.81
2017-09-23T05:07:18.747Z,1009.77
2017-09-23T05:07:59.278Z,1009.78
2017-09-23T05:08:39.886Z,1009.77
2017-09-23T05:09:20.413Z,1009.78
2017-09-23T05:10:00.923Z,1009.76
2017-09-23T05:10:41.454Z,1009.79
2017-09-23T05:11:21.996Z,1009.77
2017-09-23T05:12:02.612Z,1009.75
2017-09-23T05:12:43.179Z,1009.77
2017-09-23T05:13:23.720Z,1009.76
2017-09-23T05:14:04.259Z,1009.72
2017-09-23T05:14:44.778Z,1009.72
2017-09-23T05:15:25.331Z,1009.74
2017-09-23T05:16:05.861Z,1009.78
2017-09-23T05:16:46.409Z,1009.73
2017-09-23T05:17:26.945Z,1009.76
2017-09-23T05:18:07.510Z,1009.74
2017-09-23T05:18:48.075Z,1009.77
2017-09-23T05:19:28.622Z,1009.77
2017-09-23T05:20:09.163Z,1009.79
2017-09-23T05:20:49.728Z,1009.77
2017-09-23T05:21:30.277Z,1009.78
2017-09-23T05:22:10.839Z,1009.79
2017-09-23T05:22:51.409Z,1009.8
2017-09-23T05:23:31.932Z,1009.79
2017-09-23T05:24:12.459Z,1009.84
2017-09-23T05:24:53.009Z,1009.83
2017-09-23T05:25:33.563Z,1009.81
2017-09-23T05:26:14.104Z,1009.8
2017-09-23T05:26:54.718Z,1009.83
2017-09-23T05:27:35.327Z,1009.85
2017-09-23T05:28:15.774Z,1009.88
2017-09-23T05:28:56.339Z,1009.81
2017-09-23T05:29:36.871Z,1009.87
2017-09-23T05:30:17.441Z,1009.86
2017-09-23T05:30:57.978Z,1009.88
2017-09-23T05:31:38.520Z,1009.85
2017-09-23T05:32:19.057Z,1009.87
2017-09-23T05:32:59.599Z,1009.91
2017-09-23T05:33:40.170Z,1009.88
2017-09-23T05:34:20.680Z,1009.86
2017-09-23T05:35:01.281Z,1009.88
2017-09-23T05:35:41.795Z,1009.89
2017-09-23T05:36:22.302Z,1009.86
2017-09-23T05:37:02.851Z,1009.85
2017-09-23T05:37:43.448Z,1009.85
2017-09-23T05:38:25.773Z,1009.87
2017-09-23T05:39:06.329Z,1009.88
2017-09-23T05:39:46.876Z,1009.84
2017-09-23T05:40:27.666Z,1009.82
2017-09-23T05:41:08.386Z,1009.88
2017-09-23T05:41:48.925Z,1009.86
2017-09-23T05:42:29.523Z,1009.86
2017-09-23T05:43:10.111Z,1009.84
2017-09-23T05:43:50.661Z,1009.84
2017-09-23T05:44:31.132Z,1009.84
2017-09-23T05:45:11.673Z,1009.85
2017-09-23T05:45:52.207Z,1009.81
2017-09-23T05:46:32.776Z,1009.84
2017-09-23T05:47:13.318Z,1009.82
2017-09-23T05:47:53.839Z,1009.84
2017-09-23T05:48:34.365Z,1009.85
2017-09-23T05:49:14.949Z,1009.82
2017-09-23T05:49:55.478Z,1009.84
2017-09-23T05:50:36.027Z,1009.81
2017-09-23T05:51:16.646Z,1009.81
2017-09-23T05:51:57.181Z,1009.8
2017-09-23T05:52:37.680Z,1009.84
2017-09-23T05:53:18.246Z,1009.84
2017-09-23T05:53:58.766Z,1009.89
2017-09-23T05:54:39.351Z,1009.84
2017-09-23T05:55:19.874Z,1009.82
2017-09-23T05:56:00.393Z,1009.86
2017-09-23T05:56:40.981Z,1009.89
2017-09-23T05:57:21.519Z,1009.89
2017-09-23T05:58:02.076Z,1009.89
2017-09-23T05:58:42.641Z,1009.9
2017-09-23T05:59:23.165Z,1009.91
2017-09-23T06:00:03.930Z,1009.9
2017-09-23T06:00:44.471Z,1009.9
2017-09-23T06:01:25.012Z,1009.88
2017-09-23T06:02:05.539Z,1009.92
2017-09-23T06:02:46.091Z,1009.89
2017-09-23T06:03:26.653Z,1009.94
2017-09-23T06:04:07.160Z,1009.91
2017-09-23T06:04:47.673Z,1009.88
2017-09-23T06:05:28.238Z,1009.95
2017-09-23T06:06:08.770Z,1009.88
2017-09-23T06:06:49.328Z,1009.91
2017-09-23T06:07:29.873Z,1009.89
2017-09-23T06:08:10.410Z,1009.91
2017-09-23T06:08:50.987Z,1009.89
2017-09-23T06:09:31.510Z,1009.85
2017-09-23T06:10:12.041Z,1009.85
2017-09-23T06:10:52.606Z,1009.89
2017-09-23T06:11:33.157Z,1009.89
2017-09-23T06:12:13.724Z,1009.9
2017-09-23T06:12:54.245Z,1009.93
2017-09-23T06:13:34.797Z,1009.92
2017-09-23T06:14:15.329Z,1009.94
2017-09-23T06:14:55.904Z,1009.92
2017-09-23T06:15:36.467Z,1009.92
2017-09-23T06:16:17.042Z,1009.99
2017-09-23T06:16:57.568Z,1009.96
2017-09-23T06:17:38.135Z,1009.95
2017-09-23T06:18:18.680Z,1009.96
2017-09-23T06:18:59.206Z,1009.95
2017-09-23T06:19:39.776Z,1009.99
2017-09-23T06:20:20.324Z,1009.94
2017-09-23T06:21:00.877Z,1009.93
2017-09-23T06:21:41.416Z,1009.95
2017-09-23T06:22:21.980Z,1009.93
2017-09-23T06:23:02.526Z,1009.92
2017-09-23T06:23:43.122Z,1009.95
2017-09-23T06:24:23.642Z,1009.94
2017-09-23T06:25:04.227Z,1009.96
2017-09-23T06:25:44.712Z,1009.93
2017-09-23T06:26:25.281Z,1009.94
2017-09-23T06:27:05.880Z,1009.97
2017-09-23T06:27:46.388Z,1009.96
2017-09-23T06:28:26.919Z,1009.95
2017-09-23T06:29:07.511Z,1009.96
2017-09-23T06:29:48.044Z,1009.97
2017-09-23T06:30:28.616Z,1009.95
2017-09-23T06:31:09.161Z,1009.9
2017-09-23T06:31:49.735Z,1009.93
2017-09-23T06:32:30.272Z,1009.96
2017-09-23T06:33:10.822Z,1009.95
2017-09-23T06:33:51.346Z,1009.91
2017-09-23T06:34:31.908Z,1009.9
2017-09-23T06:35:12.466Z,1009.97
2017-09-23T06:35:53.036Z,1009.94
2017-09-23T06:36:33.591Z,1009.95
2017-09-23T06:37:14.175Z,1009.98
2017-09-23T06:37:54.725Z,1009.98
2017-09-23T06:38:35.280Z,1009.96
2017-09-23T06:39:15.846Z,1009.99
2017-09-23T06:39:56.358Z,1009.98
2017-09-23T06:40:36.884Z,1010
2017-09-23T06:41:17.441Z,1009.98
2017-09-23T06:41:58.012Z,1009.97
2017-09-23T06:42:38.529Z,1010.01
2017-09-23T06:43:19.120Z,1009.98
2017-09-23T06:43:59.638Z,1010
2017-09-23T06:44:40.243Z,1009.98
2017-09-23T06:45:20.771Z,1009.98
2017-09-23T06:46:01.267Z,1010.04
2017-09-23T06:46:41.793Z,1010.04
2017-09-23T06:47:22.338Z,1010.02
2017-09-23T06:48:02.880Z,1010.04
2017-09-23T06:48:43.433Z,1010.05
2017-09-23T06:49:23.974Z,1010.05
2017-09-23T06:50:04.526Z,1010.06
2017-09-23T06:50:45.024Z,1010.1
2017-09-23T06:51:25.573Z,1010.09
2017-09-23T06:52:06.105Z,1010.08
2017-09-23T06:52:46.657Z,1010.07
2017-09-23T06:53:27.210Z,1010.05
2017-09-23T06:54:07.762Z,1010.09
2017-09-23T06:54:48.311Z,1010.08
2017-09-23T06:55:28.852Z,1010.13
2017-09-23T06:56:09.406Z,1010.15
2017-09-23T06:56:49.957Z,1010.04
2017-09-23T06:57:30.510Z,1010.08
2017-09-23T06:58:11.072Z,1010.08
2017-09-23T06:58:51.614Z,1010.08
2017-09-23T06:59:32.165Z,1010.06
2017-09-23T07:00:12.714Z,1010.05
2017-09-23T07:00:53.248Z,1010.03
2017-09-23T07:01:33.804Z,1010.02
2017-09-23T07:02:14.364Z,1010.01
2017-09-23T07:02:54.844Z,1010.03
2017-09-23T07:03:35.384Z,1010.03
2017-09-23T07:04:15.941Z,1010
2017-09-23T07:04:56.508Z,1010.05
2017-09-23T07:05:37.010Z,1010
2017-09-23T07:06:17.629Z,1009.99
2017-09-23T07:06:58.155Z,1010.02
2017-09-23T07:07:38.681Z,1010.04
2017-09-23T07:08:19.277Z,1010.01
2017-09-23T07:08:59.812Z,1010.02
2017-09-23T07:09:40.328Z,1010.04
2017-09-23T07:10:20.875Z,1010.03
2017-09-23T07:11:01.393Z,1010.03
2017-09-23T07:11:41.947Z,1010.06
2017-09-23T07:12:22.495Z,1010.06
2017-09-23T07:13:03.009Z,1010.01
2017-09-23T07:13:43.652Z,1009.98
2017-09-23T07:14:24.218Z,1010.02
2017-09-23T07:15:04.732Z,1010.02
2017-09-23T07:15:45.246Z,1010.06
2017-09-23T07:16:25.802Z,1010
2017-09-23T07:17:06.334Z,1010.01
2017-09-23T07:17:46.911Z,1010.04
2017-09-23T07:18:27.461Z,1010.06
2017-09-23T07:19:07.973Z,1010.05
2017-09-23T07:19:48.538Z,1010.06
2017-09-23T07:20:29.092Z,1010.09
2017-09-23T07:21:09.654Z,1010.1
2017-09-23T07:21:50.230Z,1010.04
2017-09-23T07:22:30.741Z,1010.09
2017-09-23T07:23:11.296Z,1010.13
2017-09-23T07:23:51.814Z,1010.12
2017-09-23T07:24:32.368Z,1010.14
2017-09-23T07:25:12.922Z,1010.15
2017-09-23T07:25:53.485Z,1010.16
2017-09-23T07:26:34.063Z,1010.13
2017-09-23T07:27:14.616Z,1010.17
2017-09-23T07:27:55.164Z,1010.13
2017-09-23T07:28:35.728Z,1010.19
2017-09-23T07:29:16.261Z,1010.22
2017-09-23T07:29:56.814Z,1010.19
2017-09-23T07:30:37.405Z,1010.16
2017-09-23T07:31:18.027Z,1010.19
2017-09-23T07:31:58.535Z,1010.16
2017-09-23T07:32:39.174Z,1010.17
2017-09-23T07:33:19.742Z,1010.14
2017-09-23T07:34:00.271Z,1010.17
2017-09-23T07:34:40.885Z,1010.2
2017-09-23T07:35:21.462Z,1010.2
2017-09-23T07:36:02.015Z,1010.19
2017-09-23T07:36:42.571Z,1010.19
2017-09-23T07:37:23.146Z,1010.2
2017-09-23T07:38:03.708Z,1010.19
2017-09-23T07:38:44.264Z,1010.21
2017-09-23T07:39:24.746Z,1010.21
2017-09-23T07:40:05.409Z,1010.22
2017-09-23T07:40:45.898Z,1010.22
2017-09-23T07:41:26.430Z,1010.21
2017-09-23T07:42:06.965Z,1010.18
2017-09-23T07:42:47.543Z,1010.23
2017-09-23T07:43:28.107Z,1010.21
2017-09-23T07:44:08.650Z,1010.16
2017-09-23T07:44:49.185Z,1010.19
2017-09-23T07:45:29.734Z,1010.17
2017-09-23T07:46:10.329Z,1010.2
2017-09-23T07:46:50.898Z,1010.19
2017-09-23T07:47:31.404Z,1010.17
2017-09-23T07:48:11.953Z,1010.15
2017-09-23T07:48:52.500Z,1010.13
2017-09-23T07:49:33.049Z,1010.15
2017-09-23T07:50:13.624Z,1010.12
2017-09-23T07:50:54.192Z,1010.1
2017-09-23T07:51:34.767Z,1010.13
2017-09-23T07:52:15.299Z,1010.11
2017-09-23T07:52:55.845Z,1010.19
2017-09-23T07:53:36.397Z,1010.14
2017-09-23T07:54:16.964Z,1010.19
2017-09-23T07:54:57.492Z,1010.18
2017-09-23T07:55:38.068Z,1010.22
2017-09-23T07:56:18.556Z,1010.24
2017-09-23T07:56:59.078Z,1010.23
2017-09-23T07:57:39.593Z,1010.21
2017-09-23T07:58:20.142Z,1010.25
2017-09-23T07:59:00.690Z,1010.25
2017-09-23T07:59:41.236Z,1010.22
2017-09-23T08:00:21.775Z,1010.23
2017-09-23T08:01:02.358Z,1010.23
2017-09-23T08:01:42.889Z,1010.32
2017-09-23T08:02:23.444Z,1010.27
2017-09-23T08:03:03.972Z,1010.3
2017-09-23T08:03:44.535Z,1010.29
2017-09-23T08:04:25.109Z,1010.21
2017-09-23T08:05:05.662Z,1010.22
2017-09-23T08:05:46.201Z,1010.25
2017-09-23T08:06:26.724Z,1010.36
2017-09-23T08:07:07.289Z,1010.28
2017-09-23T08:07:47.856Z,1010.25
2017-09-23T08:08:28.398Z,1010.26
2017-09-23T08:09:08.957Z,1010.29
2017-09-23T08:09:49.478Z,1010.3
2017-09-23T08:10:30.037Z,1010.31
2017-09-23T08:11:10.598Z,1010.28
2017-09-23T08:11:51.125Z,1010.3